Alpine, AK

6:35 AM AKDT on September 20, 2014 (GMT -0800)
Nuiqsut | Change Station
CLOSE
Current Station
Airport
Location: Nuiqsut,
Elevation: 39 ft
Nearby Weather Stations

Elev 39 ft 70.21 °N, 150.99 °W | Updated 42 minutes ago

Light Snow
Light Snow Mist
34 °F
Feels Like 26 °F
N
10
Wind Variable Wind from ENE

Today
High -- | Low -- °F
--% Chance of Precip.
Yesterday
High -- | Low -- °F
Precip. -- in
7:36 AM 8:15 PM
Waning Crescent, 12% visible
Pressure 29.58 in
Visibility 2.5 miles
Clouds Overcast 600 ft
Windchill 26 °F
Dew Point 33 °F
Humidity 96%
Rainfall 0.08 in
Snow Depth 1 in , 0 in , 0 in
UV 0 out of 12
Pollen Not available.
Air Quality Not available.
Flu Activity Not available.
METAR PAQT 201353Z AUTO 07009KT 2 1/2SM -SN BR OVC006 01/01 A2958 RMK SLP017 P0003 T00110006 TSNO VIA AUTODIAL

More Conditions Fewer Conditions

Pressure 29.58 in
Visibility 2.5 miles
Clouds Overcast 600 ft
Windchill 26 °F
Dew Point 33 °F
Humidity 96%
Rainfall 0.08 in
Snow Depth 1 in , 0 in , 0 in
UV 0 out of 12
Pollen Not available.
Air Quality Not available.
Flu Activity Not available.
METAR PAQT 201353Z AUTO 07009KT 2 1/2SM -SN BR OVC006 01/01 A2958 RMK SLP017 P0003 T00110006 TSNO VIA AUTODIAL

More Conditions Fewer Conditions

10-Day Weather Forecast

Almanac

Astronomy

Sep. 20, 2014 Rise Set
Actual Time 7:36 AM AKDT 8:15 PM AKDT
Civil Twilight 6:33 AM AKDT 9:18 PM AKDT
Nautical Twilight 5:09 AM AKDT 10:39 PM AKDT
Astronomical Twilight 2:54 AM AKDT 12:45 AM AKDT
Moon 2:54 AM AKDT 7:33 PM AKDT
Length of Visible Light 14h 44m
Length of Day
12h 38m
Tomorrow will be 8m 44s shorter.
Waning Crescent, 12% of the Moon is Illuminated
Today
Waning Crescent
Sep 24
New
Oct 1
First Quarter
Oct 8
Full
Oct 15
Last Quarter

Today's Extremes

State Highs State Lows

Community

WunderPhotos

Upload Photos

1,754,872 photos uploaded!

WunderBlogs® & News

Nearby

Snow Depth

Station Depth Elevation
Indian Pass 1 in 2300 ft
Port Graham 0 in 300 ft
Moraine 0 in 2100 ft
Eagle Summit 0 in 3650 ft
Munson Ridge 1 in 3100 ft

Earthquake Activity

City Distance Mag. Time & Date
No recent earthquake activity has been reported nearby.
Minimum magnitude displayed is 2.5.

Coastal Water Temperatures

Place Temperature
No Stations Reporting

Nearby Weather Stations